createdAt,value
2022-12-16T00:00:20.728Z,83.37
2022-12-16T00:02:55.525Z,83.73
2022-12-16T00:05:30.855Z,84.08
2022-12-16T00:08:31.727Z,83.46
2022-12-16T00:11:10.449Z,84.12
2022-12-16T00:13:46.700Z,83.64
2022-12-16T00:16:19.613Z,83.98
2022-12-16T00:19:01.650Z,84.25
2022-12-16T00:21:33.520Z,83.69
2022-12-16T00:24:17.393Z,84.08
2022-12-16T00:26:59.702Z,83.96
2022-12-16T00:29:38.681Z,83.52
2022-12-16T00:32:12.902Z,83.18
2022-12-16T00:34:48.574Z,84.36
2022-12-16T00:37:22.480Z,84.05
2022-12-16T00:39:53.876Z,84.79
2022-12-16T00:42:26.198Z,84.53
2022-12-16T00:44:58.376Z,86.12
2022-12-16T00:47:38.556Z,85.98
2022-12-16T00:50:14.022Z,85.34
2022-12-16T00:52:55.432Z,85.43
2022-12-16T00:55:39.256Z,85.34
2022-12-16T00:58:21.135Z,85.43
2022-12-16T01:00:56.269Z,85.20
2022-12-16T01:03:27.497Z,84.61
2022-12-16T01:06:03.095Z,84.31
2022-12-16T01:08:36.144Z,84.54
2022-12-16T01:11:15.732Z,85.06
2022-12-16T01:13:50.795Z,84.38
2022-12-16T01:16:23.961Z,85.17
2022-12-16T01:18:56.664Z,84.64
2022-12-16T01:21:32.604Z,84.99
2022-12-16T01:24:06.085Z,84.77
2022-12-16T01:26:42.218Z,84.62
2022-12-16T01:29:19.497Z,85.09
2022-12-16T01:32:12.381Z,84.82
2022-12-16T01:34:55.264Z,85.01
2022-12-16T01:37:35.677Z,84.66
2022-12-16T01:40:17.647Z,84.75
2022-12-16T01:42:54.642Z,84.31
2022-12-16T01:45:40.409Z,84.52
2022-12-16T01:48:31.292Z,84.84
2022-12-16T01:51:13.188Z,84.59
2022-12-16T01:53:56.080Z,84.66
2022-12-16T01:56:37.950Z,84.82
2022-12-16T01:59:13.792Z,85.01
2022-12-16T02:01:52.903Z,84.65
2022-12-16T02:04:36.730Z,84.79
2022-12-16T02:07:08.484Z,84.63
2022-12-16T02:09:38.266Z,84.06
2022-12-16T02:12:32.609Z,84.85
2022-12-16T02:15:38.073Z,84.58
2022-12-16T02:18:22.175Z,84.50
2022-12-16T02:21:44.138Z,85.06
2022-12-16T02:25:11.749Z,85.34
2022-12-16T02:28:09.122Z,84.44
2022-12-16T02:31:27.835Z,84.37
2022-12-16T02:34:22.559Z,84.38
2022-12-16T02:37:10.368Z,84.86
2022-12-16T02:39:48.276Z,85.26
2022-12-16T02:42:32.765Z,84.03
2022-12-16T02:45:13.816Z,84.25
2022-12-16T02:47:51.102Z,84.83
2022-12-16T02:50:25.686Z,84.12
2022-12-16T02:53:25.304Z,84.80
2022-12-16T02:56:42.636Z,84.16
2022-12-16T02:59:28.226Z,84.63
2022-12-16T03:02:10.362Z,84.12
2022-12-16T03:04:54.452Z,83.89
2022-12-16T03:07:33.177Z,84.91
2022-12-16T03:10:15.562Z,84.57
2022-12-16T03:12:49.325Z,84.15
2022-12-16T03:15:26.735Z,84.24
2022-12-16T03:18:01.098Z,84.49
2022-12-16T03:20:48.324Z,84.07
2022-12-16T03:23:25.094Z,84.09
2022-12-16T03:26:12.876Z,84.35
2022-12-16T03:29:00.574Z,83.80
2022-12-16T03:31:39.672Z,83.90
2022-12-16T03:34:21.716Z,84.18
2022-12-16T03:37:25.091Z,84.43
2022-12-16T03:39:59.914Z,84.72
2022-12-16T03:42:32.258Z,84.66
2022-12-16T03:45:05.723Z,84.42
2022-12-16T03:47:38.791Z,83.72
2022-12-16T03:50:18.123Z,83.83
2022-12-16T03:53:15.761Z,83.85
2022-12-16T03:55:54.555Z,84.01
2022-12-16T03:58:28.301Z,83.77
2022-12-16T04:01:02.587Z,84.40
2022-12-16T04:03:34.425Z,83.66
2022-12-16T04:06:04.631Z,83.80
2022-12-16T04:08:38.011Z,84.73
2022-12-16T04:11:25.888Z,84.52
2022-12-16T04:14:14.175Z,84.54
2022-12-16T04:17:08.545Z,84.73
2022-12-16T04:20:12.135Z,84.15
2022-12-16T04:23:14.602Z,83.92
2022-12-16T04:26:04.770Z,84.54
2022-12-16T04:28:40.852Z,84.40
2022-12-16T04:31:16.492Z,84.58
2022-12-16T04:34:03.215Z,84.61
2022-12-16T04:36:53.297Z,83.71
2022-12-16T04:39:49.812Z,84.29
2022-12-16T04:42:42.179Z,83.90
2022-12-16T04:45:31.131Z,84.13
2022-12-16T04:48:18.350Z,83.88
2022-12-16T04:51:09.544Z,84.25
2022-12-16T04:53:58.643Z,83.83
2022-12-16T04:56:47.834Z,83.91
2022-12-16T04:59:37.005Z,84.43
2022-12-16T05:02:26.947Z,83.74
2022-12-16T05:05:14.784Z,84.28
2022-12-16T05:08:03.356Z,83.42
2022-12-16T05:10:49.839Z,83.38
2022-12-16T05:13:39.785Z,83.49
2022-12-16T05:16:43.646Z,83.29
2022-12-16T05:19:32.328Z,82.79
2022-12-16T05:22:24.224Z,83.15
2022-12-16T05:25:19.520Z,83.22
2022-12-16T05:28:14.846Z,84.10
2022-12-16T05:31:07.884Z,83.62
2022-12-16T05:34:12.759Z,83.69
2022-12-16T05:37:03.924Z,83.59
2022-12-16T05:39:51.993Z,83.48
2022-12-16T05:42:40.562Z,84.59
2022-12-16T05:45:31.974Z,84.24
2022-12-16T05:48:23.281Z,84.61
2022-12-16T05:51:20.949Z,84.72
2022-12-16T05:54:14.246Z,84.31
2022-12-16T05:57:00.695Z,84.33
2022-12-16T05:59:49.085Z,84.56
2022-12-16T06:02:42.444Z,84.36
2022-12-16T06:05:34.334Z,83.78
2022-12-16T06:08:24.555Z,84.62
2022-12-16T06:11:13.202Z,83.69
2022-12-16T06:14:02.303Z,84.20
2022-12-16T06:16:54.079Z,83.87
2022-12-16T06:19:41.722Z,84.29
2022-12-16T06:22:28.713Z,84.21
2022-12-16T06:25:34.228Z,83.80
2022-12-16T06:28:31.576Z,84.28
2022-12-16T06:31:20.208Z,84.21
2022-12-16T06:34:11.790Z,84.26
2022-12-16T06:36:59.750Z,84.37
2022-12-16T06:39:52.772Z,84.12
2022-12-16T06:45:57.257Z,84.26
2022-12-16T06:48:46.084Z,84.07
2022-12-16T06:51:51.014Z,84.15
2022-12-16T06:54:43.757Z,84.75
2022-12-16T06:57:32.865Z,84.83
2022-12-16T07:00:26.769Z,85.07
2022-12-16T07:03:20.115Z,85.05
2022-12-16T07:06:12.892Z,84.80
2022-12-16T07:09:05.615Z,84.83
2022-12-16T07:11:59.768Z,84.32
2022-12-16T07:14:48.928Z,84.70
2022-12-16T07:17:44.638Z,84.49
2022-12-16T07:20:47.351Z,84.95
2022-12-16T07:23:39.827Z,85.03
2022-12-16T07:26:33.994Z,84.85
2022-12-16T07:29:25.643Z,84.86
2022-12-16T07:32:16.915Z,85.14
2022-12-16T07:35:37.464Z,85.01
2022-12-16T07:38:29.502Z,84.81
2022-12-16T07:41:23.275Z,85.13
2022-12-16T07:44:15.788Z,84.50
2022-12-16T07:47:06.369Z,85.39
2022-12-16T07:49:56.491Z,84.88
2022-12-16T07:52:45.719Z,85.44
2022-12-16T07:55:34.777Z,85.16
2022-12-16T07:58:23.872Z,85.31
2022-12-16T08:01:15.065Z,84.32
2022-12-16T08:04:03.491Z,85.03
2022-12-16T08:06:51.330Z,84.44
2022-12-16T08:09:42.962Z,85.40
2022-12-16T08:12:32.016Z,85.21
2022-12-16T08:15:19.412Z,84.45
2022-12-16T08:18:09.157Z,84.62
2022-12-16T08:20:58.291Z,84.95
2022-12-16T08:23:46.757Z,84.84
2022-12-16T08:26:40.586Z,84.93
2022-12-16T08:29:45.931Z,85.30
2022-12-16T08:32:44.507Z,84.94
2022-12-16T08:35:35.013Z,85.39
2022-12-16T08:38:24.063Z,85.24
2022-12-16T08:41:17.604Z,85.30
2022-12-16T08:44:23.904Z,84.57
2022-12-16T08:47:11.930Z,85.29
2022-12-16T08:53:05.710Z,85.83
2022-12-16T08:59:11.038Z,85.20
2022-12-16T09:01:59.387Z,85.46
2022-12-16T09:04:46.832Z,85.14
2022-12-16T09:07:39.038Z,86.04
2022-12-16T09:10:26.879Z,85.13
2022-12-16T09:13:38.165Z,85.70
2022-12-16T09:16:31.372Z,85.32
2022-12-16T09:19:19.890Z,85.55
2022-12-16T09:22:10.505Z,85.11
2022-12-16T09:24:57.888Z,85.75
2022-12-16T09:27:44.092Z,86.12
2022-12-16T09:30:36.349Z,85.02
2022-12-16T09:33:25.879Z,85.85
2022-12-16T09:36:16.035Z,85.36
2022-12-16T09:39:04.929Z,86.33
2022-12-16T09:42:03.760Z,85.34
2022-12-16T09:45:36.013Z,86.18
2022-12-16T09:48:44.949Z,85.98
2022-12-16T09:51:39.428Z,85.74
2022-12-16T09:54:59.088Z,86.33
2022-12-16T09:57:49.872Z,85.48
2022-12-16T10:00:44.972Z,86.48
2022-12-16T10:03:42.685Z,85.44
2022-12-16T10:06:49.975Z,86.73
2022-12-16T10:09:50.590Z,86.53
2022-12-16T10:13:04.877Z,85.83
2022-12-16T10:16:24.139Z,86.55
2022-12-16T10:19:25.920Z,86.28
2022-12-16T10:22:29.924Z,86.09
2022-12-16T10:25:29.071Z,85.88
2022-12-16T10:28:40.648Z,85.57
2022-12-16T10:31:40.446Z,85.85
2022-12-16T10:34:52.033Z,85.91
2022-12-16T10:37:54.924Z,86.13
2022-12-16T10:40:56.707Z,86.10
2022-12-16T10:44:01.984Z,86.30
2022-12-16T10:46:56.283Z,86.46
2022-12-16T10:50:11.154Z,85.96
2022-12-16T10:53:06.943Z,86.47
2022-12-16T10:56:21.647Z,87.09
2022-12-16T10:59:15.181Z,86.82
2022-12-16T11:02:29.639Z,85.82
2022-12-16T11:05:43.009Z,86.46
2022-12-16T11:08:46.958Z,86.92
2022-12-16T11:11:42.043Z,86.95
2022-12-16T11:15:05.383Z,87.12
2022-12-16T11:17:53.941Z,86.04
2022-12-16T11:20:46.375Z,86.29
2022-12-16T11:23:41.784Z,87.04
2022-12-16T11:26:41.243Z,86.57
2022-12-16T11:29:35.129Z,86.50
2022-12-16T11:32:33.862Z,85.90
2022-12-16T11:35:21.352Z,86.41
2022-12-16T11:39:05.370Z,86.77
2022-12-16T11:42:01.118Z,86.77
2022-12-16T11:45:00.388Z,86.45
2022-12-16T11:48:18.022Z,86.87
2022-12-16T11:51:19.090Z,86.34
2022-12-16T11:54:18.492Z,87.06
2022-12-16T11:57:09.399Z,86.82
2022-12-16T11:59:59.889Z,86.97
2022-12-16T12:02:55.196Z,86.73
2022-12-16T12:05:49.969Z,86.51
2022-12-16T12:08:45.810Z,86.67
2022-12-16T12:11:45.011Z,86.55
2022-12-16T12:14:48.557Z,86.40
2022-12-16T12:17:50.956Z,86.61
2022-12-16T12:21:08.495Z,86.33
2022-12-16T12:24:20.338Z,86.98
2022-12-16T12:27:22.339Z,86.38
2022-12-16T12:30:22.868Z,86.81
2022-12-16T12:33:29.124Z,86.44
2022-12-16T12:36:27.496Z,86.72
2022-12-16T12:39:35.836Z,85.87
2022-12-16T12:42:51.897Z,85.84
2022-12-16T12:46:09.906Z,86.97
2022-12-16T12:49:08.844Z,86.50
2022-12-16T12:52:20.362Z,86.16
2022-12-16T12:55:26.288Z,85.99
2022-12-16T12:58:29.212Z,86.05
2022-12-16T13:01:22.868Z,85.98
2022-12-16T13:04:21.720Z,85.41
2022-12-16T13:07:11.994Z,86.26
2022-12-16T13:12:52.429Z,86.02
2022-12-16T13:16:02.921Z,85.78
2022-12-16T13:18:57.965Z,85.42
2022-12-16T13:22:09.635Z,85.69
2022-12-16T13:25:03.004Z,85.07
2022-12-16T13:28:14.113Z,85.40
2022-12-16T13:31:25.883Z,85.94
2022-12-16T13:34:18.489Z,85.69
2022-12-16T13:37:17.853Z,85.56
2022-12-16T13:40:26.077Z,84.90
2022-12-16T13:43:18.193Z,85.18
2022-12-16T13:46:36.671Z,84.99
2022-12-16T13:50:05.612Z,85.71
2022-12-16T13:53:07.254Z,85.01
2022-12-16T13:56:15.509Z,85.43
2022-12-16T13:59:15.933Z,85.48
2022-12-16T14:02:14.580Z,85.41
2022-12-16T14:05:05.587Z,84.96
2022-12-16T14:07:59.188Z,85.17
2022-12-16T14:10:54.109Z,84.26
2022-12-16T14:13:50.647Z,84.07
2022-12-16T14:16:53.924Z,84.48
2022-12-16T14:20:01.292Z,85.02
2022-12-16T14:23:10.877Z,84.96
2022-12-16T14:26:06.691Z,84.38
2022-12-16T14:29:00.030Z,84.35
2022-12-16T14:31:54.817Z,84.46
2022-12-16T14:34:52.056Z,83.87
2022-12-16T14:37:53.604Z,84.32
2022-12-16T14:40:47.920Z,84.86
2022-12-16T14:46:49.673Z,83.84
2022-12-16T14:49:47.969Z,84.34
2022-12-16T14:52:45.958Z,84.32
2022-12-16T14:55:39.057Z,84.10
2022-12-16T14:58:34.890Z,84.01
2022-12-16T15:01:32.475Z,84.49
2022-12-16T15:04:33.094Z,84.75
2022-12-16T15:07:38.869Z,84.55
2022-12-16T15:14:03.706Z,84.42
2022-12-16T15:16:57.328Z,83.93
2022-12-16T15:19:49.292Z,84.11
2022-12-16T15:22:37.313Z,84.67
2022-12-16T15:25:40.198Z,84.75
2022-12-16T15:28:44.197Z,84.46
2022-12-16T15:31:45.307Z,84.05
2022-12-16T15:34:50.222Z,84.63
2022-12-16T15:37:45.055Z,84.40
2022-12-16T15:40:46.843Z,84.54
2022-12-16T15:43:47.127Z,83.38
2022-12-16T15:46:42.641Z,83.24
2022-12-16T15:49:42.193Z,83.07
2022-12-16T15:52:57.155Z,83.37
2022-12-16T15:55:52.007Z,83.48
2022-12-16T15:59:04.585Z,83.17
2022-12-16T16:02:04.762Z,83.94
2022-12-16T16:04:53.762Z,82.64
2022-12-16T16:07:48.361Z,83.23
2022-12-16T16:10:44.067Z,82.94
2022-12-16T16:13:33.950Z,83.61
2022-12-16T16:16:22.816Z,82.44
2022-12-16T16:19:10.576Z,82.68
2022-12-16T16:21:56.914Z,83.16
2022-12-16T16:24:44.238Z,83.40
2022-12-16T16:30:44.175Z,83.32
2022-12-16T16:33:34.890Z,83.84
2022-12-16T16:36:33.375Z,83.47
2022-12-16T16:39:31.396Z,83.26
2022-12-16T16:43:18.607Z,83.00
2022-12-16T16:46:14.306Z,83.13
2022-12-16T16:49:05.729Z,83.20
2022-12-16T16:51:54.996Z,83.36
2022-12-16T16:54:45.780Z,83.75
2022-12-16T16:57:36.332Z,83.02
2022-12-16T17:00:26.756Z,83.64
2022-12-16T17:03:33.028Z,83.04
2022-12-16T17:06:24.713Z,82.72
2022-12-16T17:09:12.590Z,83.12
2022-12-16T17:12:01.620Z,83.27
2022-12-16T17:14:53.045Z,82.76
2022-12-16T17:17:39.525Z,83.41
2022-12-16T17:20:41.023Z,83.66
2022-12-16T17:23:30.448Z,83.20
2022-12-16T17:26:18.041Z,83.87
2022-12-16T17:29:07.917Z,83.68
2022-12-16T17:31:56.889Z,83.66
2022-12-16T17:34:45.231Z,83.70
2022-12-16T17:37:41.583Z,84.04
2022-12-16T17:40:32.817Z,83.82
2022-12-16T17:43:25.569Z,83.88
2022-12-16T17:46:23.051Z,83.42
2022-12-16T17:49:12.133Z,83.65
2022-12-16T17:52:03.000Z,84.49
2022-12-16T17:54:53.076Z,83.49
2022-12-16T17:57:42.318Z,84.56
2022-12-16T18:00:33.478Z,83.97
2022-12-16T18:03:23.653Z,83.98
2022-12-16T18:06:27.740Z,84.45
2022-12-16T18:09:17.186Z,84.39
2022-12-16T18:12:09.007Z,84.60
2022-12-16T18:15:16.791Z,84.28
2022-12-16T18:18:09.076Z,84.43
2022-12-16T18:20:57.243Z,84.09
2022-12-16T18:23:50.293Z,84.60
2022-12-16T18:26:38.406Z,84.24
2022-12-16T18:29:33.534Z,85.14
2022-12-16T18:36:44.193Z,84.40
2022-12-16T18:39:36.966Z,84.81
2022-12-16T18:42:34.455Z,85.17
2022-12-16T18:45:26.710Z,84.37
2022-12-16T18:48:16.647Z,85.17
2022-12-16T18:51:22.131Z,84.80
2022-12-16T18:54:22.986Z,85.22
2022-12-16T18:57:19.006Z,84.97
2022-12-16T19:00:12.179Z,85.15
2022-12-16T19:03:06.927Z,84.66
2022-12-16T19:05:55.409Z,84.67
2022-12-16T19:08:45.450Z,84.85
2022-12-16T19:11:39.857Z,85.27
2022-12-16T19:14:31.680Z,84.93
2022-12-16T19:17:23.188Z,84.88
2022-12-16T19:20:22.527Z,84.99
2022-12-16T19:23:12.773Z,84.56
2022-12-16T19:26:01.078Z,85.48
2022-12-16T19:28:50.089Z,85.69
2022-12-16T19:31:42.854Z,85.03
2022-12-16T19:34:30.284Z,85.62
2022-12-16T19:37:46.434Z,85.67
2022-12-16T19:40:36.412Z,85.46
2022-12-16T19:43:24.782Z,85.51
2022-12-16T19:46:17.289Z,86.10
2022-12-16T19:49:10.552Z,85.34
2022-12-16T19:52:00.076Z,86.19
2022-12-16T19:54:47.510Z,85.99
2022-12-16T19:57:35.222Z,86.38
2022-12-16T20:00:34.666Z,85.99
2022-12-16T20:03:27.527Z,86.63
2022-12-16T20:06:36.856Z,86.13
2022-12-16T20:09:27.533Z,86.53
2022-12-16T20:12:19.464Z,86.17
2022-12-16T20:15:09.244Z,86.61
2022-12-16T20:17:58.187Z,86.77
2022-12-16T20:21:00.240Z,86.21
2022-12-16T20:23:48.767Z,86.58
2022-12-16T20:26:44.136Z,86.95
2022-12-16T20:29:38.106Z,86.75
2022-12-16T20:32:26.899Z,86.94
2022-12-16T20:35:18.928Z,86.94
2022-12-16T20:38:12.262Z,86.85
2022-12-16T20:41:04.095Z,87.59
2022-12-16T20:43:55.319Z,87.11
2022-12-16T20:46:51.790Z,87.62
2022-12-16T20:49:42.855Z,87.54
2022-12-16T20:52:29.988Z,87.47
2022-12-16T20:55:23.033Z,86.69
2022-12-16T20:58:15.011Z,87.33
2022-12-16T21:01:04.581Z,87.06
2022-12-16T21:03:58.147Z,87.12
2022-12-16T21:06:49.584Z,87.22
2022-12-16T21:09:38.287Z,87.20
2022-12-16T21:12:31.450Z,87.95
2022-12-16T21:15:23.904Z,87.92
2022-12-16T21:18:13.557Z,87.51
2022-12-16T21:21:16.223Z,87.07
2022-12-16T21:24:24.762Z,87.62
2022-12-16T21:27:13.114Z,87.62
2022-12-16T21:30:03.818Z,86.64
2022-12-16T21:36:00.245Z,87.00
2022-12-16T21:38:56.132Z,87.65
2022-12-16T21:41:49.118Z,87.11
2022-12-16T21:44:44.382Z,87.15
2022-12-16T21:47:32.994Z,87.38
2022-12-16T21:50:33.841Z,87.21
2022-12-16T21:53:25.181Z,87.08
2022-12-16T21:56:22.141Z,87.37
2022-12-16T21:59:19.250Z,87.27
2022-12-16T22:02:11.442Z,86.91
2022-12-16T22:05:00.143Z,86.66
2022-12-16T22:07:50.536Z,86.51
2022-12-16T22:10:41.170Z,86.67
2022-12-16T22:13:39.987Z,86.70
2022-12-16T22:16:35.587Z,87.01
2022-12-16T22:19:26.808Z,86.86
2022-12-16T22:22:15.105Z,86.76
2022-12-16T22:25:03.152Z,86.58
2022-12-16T22:28:01.659Z,86.73
2022-12-16T22:31:05.492Z,86.60
2022-12-16T22:34:02.394Z,86.69
2022-12-16T22:36:52.777Z,86.82
2022-12-16T22:39:46.749Z,86.70
2022-12-16T22:42:40.252Z,86.63
2022-12-16T22:45:31.336Z,87.06
2022-12-16T22:48:34.420Z,87.01
2022-12-16T22:51:22.928Z,86.94
2022-12-16T22:54:12.292Z,86.87
2022-12-16T22:56:59.477Z,86.84
2022-12-16T22:59:49.311Z,87.85
2022-12-16T23:02:39.243Z,86.92
2022-12-16T23:05:33.675Z,87.08
2022-12-16T23:08:31.640Z,86.62
2022-12-16T23:11:22.944Z,87.01
2022-12-16T23:14:13.629Z,87.01
2022-12-16T23:17:04.949Z,87.17
2022-12-16T23:19:56.633Z,87.07
2022-12-16T23:22:50.213Z,87.40
2022-12-16T23:25:42.361Z,87.44
2022-12-16T23:28:29.145Z,87.23
2022-12-16T23:31:19.144Z,87.04
2022-12-16T23:34:12.799Z,87.38
2022-12-16T23:37:02.487Z,87.43
2022-12-16T23:42:56.288Z,87.23
2022-12-16T23:45:44.908Z,87.59
2022-12-16T23:48:33.188Z,86.93
2022-12-16T23:51:24.738Z,87.49
2022-12-16T23:54:14.548Z,87.41
2022-12-16T23:57:06.098Z,87.10
2022-12-16T23:59:54.273Z,87.16
